Time;durP1;ratioP1;P1;durP2;ratioP2;P2;SDS_P1;SDS_P2;PMS_P1;PMS_P2;Temp;Humidity;BMP_temperature;BMP_pressure;BME280_temperature;BME280_humidity;BME280_pressure;Samples;Min_cycle;Max_cycle;Signal;HPM_P1;HPM_P2
2022/01/14 00:00:06;;;;;;;18.85;15.15;;;3.80;99.90;;;;;;5120512;27;20666;-57
2022/01/14 00:02:32;;;;;;;53.88;20.73;;;3.90;99.90;;;;;;5120662;27;20640;-57
2022/01/14 00:04:57;;;;;;;40.10;18.45;;;3.90;99.90;;;;;;5120094;27;20176;-58
2022/01/14 00:07:25;;;;;;;48.70;17.80;;;3.90;99.90;;;;;;5120320;27;20178;-58
2022/01/14 00:09:51;;;;;;;31.70;18.57;;;3.90;99.90;;;;;;5119146;28;20181;-58
2022/01/14 00:12:23;;;;;;;69.33;22.13;;;3.80;99.90;;;;;;5120075;28;20172;-57
2022/01/14 00:15:23;;;;;;;28.50;17.47;;;3.90;99.90;;;;;;5120424;27;20168;-58
2022/01/14 00:17:46;;;;;;;69.85;20.85;;;3.90;99.90;;;;;;5120188;28;20208;-57
2022/01/14 00:20:12;;;;;;;48.63;17.83;;;3.80;99.90;;;;;;5120295;28;20176;-58
2022/01/14 00:22:38;;;;;;;37.22;17.10;;;3.80;99.90;;;;;;5121997;27;20267;-57
2022/01/14 00:33:08;;;;;;;41.03;16.50;;;3.70;99.90;;;;;;5120216;28;20218;-57
2022/01/14 00:35:41;;;;;;;37.38;17.77;;;3.60;99.90;;;;;;5120112;27;20229;-57
2022/01/14 00:38:07;;;;;;;47.63;18.35;;;3.60;99.90;;;;;;5118994;28;20168;-57
2022/01/14 00:40:33;;;;;;;28.27;16.95;;;3.70;99.90;;;;;;5119832;27;20618;-57
2022/01/14 00:42:59;;;;;;;34.10;16.30;;;3.50;99.90;;;;;;5119658;28;20184;-57
2022/01/14 00:45:25;;;;;;;46.85;19.10;;;3.60;99.90;;;;;;5115906;28;20263;-57
2022/01/14 00:47:51;;;;;;;22.65;16.08;;;3.60;99.90;;;;;;5116959;28;20217;-57
2022/01/14 00:50:18;;;;;;;29.27;17.20;;;3.60;99.90;;;;;;5116881;28;20177;-57
2022/01/14 00:52:45;;;;;;;59.47;19.75;;;3.60;99.90;;;;;;5116718;28;20183;-57
2022/01/14 00:55:14;;;;;;;58.38;18.70;;;3.60;99.90;;;;;;5116749;28;20641;-57
2022/01/14 01:00:34;;;;;;;79.63;21.48;;;3.40;99.90;;;;;;5096010;28;20224;-57
2022/01/14 01:03:01;;;;;;;45.93;16.63;;;3.40;99.90;;;;;;5116215;28;20172;-57
2022/01/14 01:05:27;;;;;;;28.50;15.15;;;3.40;99.90;;;;;;5116253;28;20181;-57
2022/01/14 01:08:07;;;;;;;31.50;16.02;;;3.40;99.90;;;;;;5116356;27;20605;-57
2022/01/14 01:10:34;;;;;;;57.60;17.37;;;3.40;99.90;;;;;;5116093;28;20637;-57
2022/01/14 01:13:17;;;;;;;36.27;16.20;;;3.40;99.90;;;;;;5116303;28;20186;-57
2022/01/14 01:15:43;;;;;;;54.72;18.38;;;3.30;99.90;;;;;;5115925;28;20537;-57
2022/01/14 01:18:09;;;;;;;67.97;18.60;;;3.20;99.90;;;;;;5116467;28;20283;-57
2022/01/14 01:20:34;;;;;;;59.20;16.77;;;3.10;99.90;;;;;;5114855;28;20177;-57
2022/01/14 01:23:00;;;;;;;51.53;15.90;;;3.00;99.90;;;;;;5114932;28;20181;-57
2022/01/14 01:25:29;;;;;;;56.47;14.73;;;3.00;99.90;;;;;;5115065;28;20634;-57
2022/01/14 01:27:55;;;;;;;41.93;15.50;;;2.90;99.90;;;;;;5114861;28;20215;-57
2022/01/14 01:32:57;;;;;;;28.60;14.57;;;2.90;99.90;;;;;;5116082;28;20617;-57
2022/01/14 01:35:23;;;;;;;57.10;17.27;;;2.90;99.90;;;;;;5116015;28;20177;-57
2022/01/14 01:37:49;;;;;;;48.43;15.30;;;2.80;99.90;;;;;;5115843;28;20253;-57
2022/01/14 01:40:15;;;;;;;64.77;14.77;;;2.80;99.90;;;;;;5115849;28;20201;-57
2022/01/14 01:42:44;;;;;;;64.67;15.70;;;2.70;99.90;;;;;;5115775;28;20249;-57
2022/01/14 01:45:12;;;;;;;28.83;12.47;;;2.60;99.90;;;;;;5115614;28;20184;-57
2022/01/14 01:47:39;;;;;;;66.80;14.83;;;2.60;99.90;;;;;;5115329;28;20181;-57
2022/01/14 01:50:14;;;;;;;38.00;12.83;;;2.60;99.90;;;;;;5115645;28;20172;-57
2022/01/14 01:52:39;;;;;;;71.73;14.40;;;2.50;99.90;;;;;;5115330;28;20186;-57
2022/01/14 01:55:06;;;;;;;27.93;11.97;;;2.50;99.90;;;;;;5113890;28;20172;-57
2022/01/14 01:57:33;;;;;;;45.13;13.57;;;2.40;99.90;;;;;;5115487;28;20538;-57
2022/01/14 01:59:59;;;;;;;43.03;14.10;;;2.40;99.90;;;;;;5115149;28;20180;-57
2022/01/14 02:02:25;;;;;;;62.40;15.47;;;2.40;99.90;;;;;;5115176;28;20175;-57
2022/01/14 02:04:51;;;;;;;75.30;15.90;;;2.40;99.90;;;;;;5113873;28;20541;-57
2022/01/14 02:07:17;;;;;;;78.40;15.80;;;2.30;99.90;;;;;;5115800;28;20177;-58
2022/01/14 02:09:42;;;;;;;40.70;13.90;;;2.30;99.90;;;;;;5119208;27;20204;-57
2022/01/14 02:12:11;;;;;;;33.87;13.43;;;2.30;99.90;;;;;;5118708;28;20173;-57
2022/01/14 02:22:08;;;;;;;24.50;12.93;;;2.30;99.90;;;;;;5115092;28;20652;-57
2022/01/14 02:22:54;;;;;;;65.50;15.53;;;2.30;99.90;;;;;;5114591;28;20188;-57
2022/01/14 02:25:29;;;;;;;24.80;12.00;;;2.30;99.90;;;;;;5114986;28;20312;-57
2022/01/14 02:28:05;;;;;;;26.93;14.53;;;2.20;99.90;;;;;;5114930;28;20200;-57
2022/01/14 02:30:32;;;;;;;30.33;15.03;;;2.30;99.90;;;;;;5115396;28;20553;-57
2022/01/14 02:32:58;;;;;;;27.07;13.63;;;2.30;99.90;;;;;;5114754;28;20189;-57
2022/01/14 02:35:24;;;;;;;49.50;15.63;;;2.20;99.90;;;;;;5096290;28;20181;-57
2022/01/14 02:37:50;;;;;;;53.60;17.30;;;2.20;99.90;;;;;;5113241;28;20191;-57
2022/01/14 02:40:16;;;;;;;67.73;15.57;;;2.10;99.90;;;;;;5114697;28;20180;-57
2022/01/14 02:42:42;;;;;;;39.50;14.37;;;1.90;99.90;;;;;;5114599;28;20176;-57
2022/01/14 02:45:11;;;;;;;39.33;13.80;;;1.90;99.90;;;;;;5114333;28;20273;-57
2022/01/14 02:47:37;;;;;;;36.07;14.27;;;1.90;99.90;;;;;;5114563;28;20189;-57
2022/01/14 02:50:13;;;;;;;63.97;16.50;;;1.90;99.90;;;;;;5114483;28;20257;-57
2022/01/14 02:55:22;;;;;;;41.60;13.90;;;1.80;99.90;;;;;;5114401;28;20405;-57
2022/01/14 02:57:50;;;;;;;20.07;13.13;;;1.80;99.90;;;;;;5114296;28;20640;-57
2022/01/14 03:00:19;;;;;;;55.07;15.53;;;1.80;99.90;;;;;;5114338;28;20170;-57
2022/01/14 03:02:46;;;;;;;45.40;14.20;;;1.80;99.90;;;;;;5114261;28;20259;-57
2022/01/14 03:05:14;;;;;;;76.80;17.13;;;1.80;99.90;;;;;;5113869;28;20265;-57
2022/01/14 03:07:41;;;;;;;78.37;16.60;;;1.80;99.90;;;;;;5113841;28;20177;-57
2022/01/14 03:10:09;;;;;;;37.53;14.00;;;1.80;99.90;;;;;;5112890;28;20177;-57
2022/01/14 03:12:36;;;;;;;67.77;16.87;;;1.70;99.90;;;;;;5113788;28;20660;-57
2022/01/14 03:15:02;;;;;;;83.70;15.57;;;1.60;99.90;;;;;;5112503;28;20215;-62
2022/01/14 03:17:29;;;;;;;48.57;14.33;;;1.70;99.90;;;;;;5114162;28;20191;-57
2022/01/14 03:19:55;;;;;;;16.60;12.23;;;1.80;99.90;;;;;;5113714;28;20524;-57
2022/01/14 03:22:42;;;;;;;29.73;15.23;;;1.80;99.90;;;;;;5113641;28;20184;-57
2022/01/14 03:27:53;;;;;;;17.87;13.73;;;1.70;99.90;;;;;;5113911;28;20574;-57
2022/01/14 03:30:19;;;;;;;20.23;15.53;;;1.80;99.90;;;;;;5113689;28;20180;-57
2022/01/14 03:32:45;;;;;;;18.47;15.00;;;1.80;99.90;;;;;;5113937;28;20200;-58
2022/01/14 03:35:12;;;;;;;18.47;14.57;;;1.80;99.90;;;;;;5112743;28;20204;-57
2022/01/14 03:37:38;;;;;;;20.07;15.03;;;1.90;99.90;;;;;;5113842;28;20181;-57
2022/01/14 03:40:06;;;;;;;18.10;14.63;;;1.90;99.90;;;;;;5113600;28;20166;-58
2022/01/14 03:42:32;;;;;;;23.93;16.50;;;1.80;99.90;;;;;;5113592;28;20697;-57
2022/01/14 03:44:58;;;;;;;20.37;15.27;;;1.80;99.90;;;;;;5113739;28;20184;-57
2022/01/14 03:47:23;;;;;;;24.70;16.63;;;1.80;99.90;;;;;;5113853;28;20181;-57
2022/01/14 03:49:49;;;;;;;33.83;18.13;;;1.90;99.90;;;;;;5113396;28;20201;-58
2022/01/14 03:52:16;;;;;;;26.23;16.53;;;1.90;99.90;;;;;;5112519;28;20172;-57
2022/01/14 03:54:41;;;;;;;33.70;18.80;;;1.90;99.90;;;;;;5114744;28;20257;-57
2022/01/14 03:57:07;;;;;;;41.57;19.63;;;1.90;99.90;;;;;;5120793;28;20213;-57
2022/01/14 03:59:33;;;;;;;41.47;20.50;;;2.10;99.90;;;;;;5114293;28;20192;-57
2022/01/14 04:01:58;;;;;;;33.47;17.77;;;2.00;99.90;;;;;;5112299;28;20201;-57
2022/01/14 04:04:24;;;;;;;33.10;18.53;;;1.90;99.90;;;;;;5112223;28;20233;-57
2022/01/14 04:06:50;;;;;;;24.03;16.27;;;2.00;99.90;;;;;;5113461;28;20168;-57
2022/01/14 04:09:16;;;;;;;32.50;19.03;;;2.00;99.90;;;;;;5113202;28;20633;-57
2022/01/14 04:11:44;;;;;;;39.20;20.87;;;2.10;99.90;;;;;;5113439;28;20184;-57
2022/01/14 04:16:50;;;;;;;35.93;20.23;;;2.20;99.90;;;;;;5113251;28;20238;-57
2022/01/14 04:19:16;;;;;;;46.57;21.27;;;2.20;99.90;;;;;;5113173;28;20192;-57
2022/01/14 04:21:42;;;;;;;29.20;18.60;;;2.40;99.90;;;;;;5116904;28;20217;-57
2022/01/14 04:24:07;;;;;;;38.53;20.67;;;2.40;99.90;;;;;;5117198;28;20257;-57
2022/01/14 04:26:33;;;;;;;45.93;21.20;;;2.40;99.90;;;;;;5115677;28;20180;-57
2022/01/14 04:28:59;;;;;;;33.90;19.80;;;2.30;99.90;;;;;;5115817;28;20208;-57
2022/01/14 04:31:24;;;;;;;30.40;19.40;;;2.40;99.90;;;;;;5116756;28;20204;-57
2022/01/14 04:33:50;;;;;;;55.53;24.57;;;2.40;99.90;;;;;;5115826;28;20651;-57
2022/01/14 04:36:16;;;;;;;33.30;19.37;;;2.30;99.90;;;;;;5115633;28;20603;-57
2022/01/14 04:38:41;;;;;;;40.53;20.63;;;2.30;99.90;;;;;;5115679;28;20237;-57
2022/01/14 04:41:09;;;;;;;43.87;21.57;;;2.30;99.90;;;;;;5116819;28;20173;-57
2022/01/14 04:43:34;;;;;;;58.80;23.67;;;2.40;99.90;;;;;;5116811;28;20179;-57
2022/01/14 04:48:28;;;;;;;42.80;21.40;;;2.50;99.90;;;;;;5116828;28;20204;-57
2022/01/14 04:50:55;;;;;;;52.03;22.20;;;2.50;99.90;;;;;;5116581;28;20172;-57
2022/01/14 04:53:22;;;;;;;60.77;23.60;;;2.40;99.90;;;;;;5115561;28;20174;-57
2022/01/14 04:55:49;;;;;;;50.40;20.70;;;2.50;99.90;;;;;;5116689;28;20172;-57
2022/01/14 04:58:15;;;;;;;39.97;21.30;;;2.60;99.90;;;;;;5115509;28;20177;-57
2022/01/14 05:00:41;;;;;;;29.93;18.93;;;2.60;99.90;;;;;;5116599;28;20177;-57
2022/01/14 05:03:07;;;;;;;47.23;22.80;;;2.60;99.90;;;;;;5116189;28;20630;-57
2022/01/14 05:05:37;;;;;;;52.73;22.23;;;2.70;99.90;;;;;;5116737;28;20172;-57
2022/01/14 05:08:08;;;;;;;47.77;20.60;;;2.70;99.90;;;;;;5116335;28;20209;-57
2022/01/14 05:10:37;;;;;;;36.37;21.10;;;2.60;99.90;;;;;;5116158;28;20634;-57
2022/01/14 05:13:03;;;;;;;57.13;22.70;;;2.60;99.90;;;;;;5116332;28;20191;-58
2022/01/14 05:15:29;;;;;;;38.40;20.17;;;2.60;99.90;;;;;;5116278;28;20176;-57
2022/01/14 05:17:55;;;;;;;23.53;18.90;;;2.70;99.90;;;;;;5114956;28;20197;-57
2022/01/14 05:20:22;;;;;;;155.87;32.07;;;2.60;99.90;;;;;;5114674;28;20194;-57
2022/01/14 05:22:47;;;;;;;51.57;22.23;;;2.60;99.90;;;;;;5116154;28;20188;-57
2022/01/14 05:25:14;;;;;;;45.33;22.93;;;2.60;99.90;;;;;;5116177;28;20199;-57
2022/01/14 05:27:42;;;;;;;25.27;19.43;;;2.70;99.90;;;;;;5114864;28;20177;-57
2022/01/14 05:30:11;;;;;;;52.07;21.27;;;2.50;99.90;;;;;;5115402;28;20538;-57
2022/01/14 05:32:45;;;;;;;44.90;22.60;;;2.50;99.90;;;;;;5097656;28;20173;-57
2022/01/14 05:35:11;;;;;;;64.07;25.43;;;2.60;99.90;;;;;;5116034;28;20490;-57
2022/01/14 05:37:36;;;;;;;42.37;22.60;;;2.60;99.90;;;;;;5115686;28;20185;-57
2022/01/14 05:40:03;;;;;;;54.57;23.43;;;2.60;99.90;;;;;;5115888;28;20170;-58
2022/01/14 05:42:33;;;;;;;66.57;26.30;;;2.60;99.90;;;;;;5116443;28;20202;-57
2022/01/14 05:45:03;;;;;;;47.23;21.50;;;2.50;99.90;;;;;;5119664;28;20176;-57
2022/01/14 05:47:29;;;;;;;25.10;19.67;;;2.60;99.90;;;;;;5115559;28;20730;-57
2022/01/14 05:49:54;;;;;;;27.80;19.23;;;2.40;99.90;;;;;;5115234;28;20201;-57
2022/01/14 05:52:21;;;;;;;26.23;17.87;;;2.30;99.90;;;;;;5115629;28;20302;-57
2022/01/14 05:54:48;;;;;;;27.00;18.50;;;2.40;99.90;;;;;;5114343;28;20578;-57
2022/01/14 05:57:14;;;;;;;26.03;18.63;;;2.40;99.90;;;;;;5115612;28;20243;-57
2022/01/14 05:59:40;;;;;;;51.03;23.20;;;2.50;99.90;;;;;;5115192;28;20188;-58
2022/01/14 06:02:06;;;;;;;58.13;21.67;;;2.50;99.90;;;;;;5114171;28;20187;-56
2022/01/14 06:04:32;;;;;;;31.53;21.40;;;2.50;99.90;;;;;;5115359;27;20178;-55
2022/01/14 06:06:57;;;;;;;89.47;28.00;;;2.50;99.90;;;;;;5115097;28;20255;-56
2022/01/14 06:09:23;;;;;;;26.13;18.87;;;2.40;99.90;;;;;;5112951;28;20210;-55
2022/01/14 06:11:48;;;;;;;20.10;17.10;;;2.50;99.90;;;;;;5113596;28;20266;-55
2022/01/14 06:14:14;;;;;;;39.43;20.07;;;2.50;99.90;;;;;;5114013;28;20233;-56
2022/01/14 06:16:40;;;;;;;47.83;23.00;;;2.60;99.90;;;;;;5114734;28;20196;-55
2022/01/14 06:19:05;;;;;;;29.20;19.50;;;2.50;99.90;;;;;;5115058;28;20506;-55
2022/01/14 06:21:31;;;;;;;26.37;19.67;;;2.60;99.90;;;;;;5114708;28;20176;-56
2022/01/14 06:23:57;;;;;;;23.00;18.93;;;2.70;99.90;;;;;;5114974;28;20177;-55
2022/01/14 06:26:23;;;;;;;28.67;20.53;;;2.70;99.90;;;;;;5114909;28;20210;-56
2022/01/14 06:28:48;;;;;;;36.67;21.17;;;2.80;99.90;;;;;;5113558;28;20207;-55
2022/01/14 06:31:14;;;;;;;53.93;23.27;;;2.70;99.90;;;;;;5113396;28;20184;-55
2022/01/14 06:33:41;;;;;;;38.27;21.10;;;2.70;99.90;;;;;;5113456;28;20271;-56
2022/01/14 06:36:07;;;;;;;82.27;26.77;;;2.70;99.90;;;;;;5114703;28;20185;-54
2022/01/14 06:38:33;;;;;;;29.90;20.67;;;2.50;99.90;;;;;;5113512;28;20184;-55
2022/01/14 06:40:59;;;;;;;31.50;19.33;;;2.60;99.90;;;;;;5113601;28;20241;-56
2022/01/14 06:43:25;;;;;;;53.10;24.13;;;2.50;99.90;;;;;;5112631;28;20178;-57
2022/01/14 06:45:50;;;;;;;25.77;19.90;;;2.50;99.90;;;;;;5114749;28;20173;-55
2022/01/14 06:48:16;;;;;;;51.03;22.77;;;2.50;99.90;;;;;;5114089;28;20211;-55
2022/01/14 06:50:41;;;;;;;37.50;21.63;;;2.60;99.90;;;;;;5114442;28;20235;-55
2022/01/14 06:53:07;;;;;;;51.73;24.93;;;2.50;99.90;;;;;;5114400;28;20176;-55
2022/01/14 06:55:33;;;;;;;37.87;23.43;;;2.70;99.90;;;;;;5114076;28;20176;-55
2022/01/14 06:57:58;;;;;;;29.90;21.87;;;2.80;99.90;;;;;;5114076;28;20204;-55
2022/01/14 07:00:25;;;;;;;57.63;24.93;;;2.80;99.90;;;;;;5113967;28;20614;-56
2022/01/14 07:02:51;;;;;;;75.47;27.10;;;2.80;99.90;;;;;;5114158;28;20702;-54
2022/01/14 07:05:16;;;;;;;54.87;25.60;;;2.80;99.90;;;;;;5114245;28;20173;-55
2022/01/14 07:07:42;;;;;;;49.20;22.53;;;2.60;99.90;;;;;;5113857;28;20181;-55
2022/01/14 07:10:09;;;;;;;38.00;21.83;;;2.60;99.90;;;;;;5114159;28;20185;-55
2022/01/14 07:12:38;;;;;;;45.93;22.97;;;2.80;99.90;;;;;;5096123;28;20184;-54
2022/01/14 07:15:06;;;;;;;47.03;24.60;;;2.80;99.90;;;;;;5114441;28;20559;-55
2022/01/14 07:17:31;;;;;;;42.40;25.50;;;2.80;99.90;;;;;;5112657;28;20214;-56
2022/01/14 07:20:04;;;;;;;27.57;20.80;;;2.80;99.90;;;;;;5112912;28;20237;-55
2022/01/14 07:22:30;;;;;;;33.20;22.10;;;2.80;99.90;;;;;;5114072;28;20157;-54
2022/01/14 07:24:55;;;;;;;32.83;21.93;;;2.70;99.90;;;;;;5112693;28;20245;-55
2022/01/14 07:27:21;;;;;;;31.43;22.00;;;2.60;99.90;;;;;;5113619;28;20178;-55
2022/01/14 07:29:47;;;;;;;39.23;22.83;;;2.50;99.90;;;;;;5114476;28;20256;-56
2022/01/14 07:32:13;;;;;;;38.80;22.67;;;2.50;99.90;;;;;;5114031;28;20543;-55
2022/01/14 07:34:38;;;;;;;25.10;19.53;;;2.50;99.90;;;;;;5113913;28;20178;-55
2022/01/14 07:37:04;;;;;;;44.00;23.60;;;2.40;99.90;;;;;;5113004;28;20521;-55
2022/01/14 07:39:30;;;;;;;28.03;19.77;;;2.30;99.90;;;;;;5112609;28;20263;-55
2022/01/14 07:41:55;;;;;;;42.67;22.40;;;2.30;99.90;;;;;;5112893;28;20261;-56
2022/01/14 07:44:21;;;;;;;65.10;24.57;;;2.30;99.90;;;;;;5113826;28;20635;-55
2022/01/14 07:46:47;;;;;;;52.83;23.27;;;2.30;99.90;;;;;;5113696;28;20184;-55
2022/01/14 07:49:14;;;;;;;18.40;15.30;;;2.20;99.90;;;;;;5113667;28;20642;-56
2022/01/14 07:51:40;;;;;;;45.20;21.17;;;2.30;99.90;;;;;;5113696;28;20605;-55
2022/01/14 07:54:06;;;;;;;22.03;18.60;;;2.20;99.90;;;;;;5116190;28;20173;-55
2022/01/14 07:56:36;;;;;;;30.03;19.97;;;2.20;99.90;;;;;;5117926;28;20173;-56
2022/01/14 07:59:05;;;;;;;43.97;21.60;;;2.20;99.90;;;;;;5117802;28;20183;-55
2022/01/14 08:01:33;;;;;;;58.87;21.90;;;2.20;99.90;;;;;;5117740;28;20181;-55
2022/01/14 08:03:59;;;;;;;59.57;22.93;;;2.30;99.90;;;;;;5116494;28;20230;-57
2022/01/14 08:06:26;;;;;;;48.70;23.53;;;2.40;99.90;;;;;;5118018;28;20529;-55
2022/01/14 08:08:52;;;;;;;67.67;22.37;;;2.30;99.90;;;;;;5117498;28;20208;-55
2022/01/14 08:11:18;;;;;;;62.93;21.03;;;2.20;99.90;;;;;;5116301;28;20192;-56
2022/01/14 08:13:44;;;;;;;29.03;19.77;;;2.20;99.90;;;;;;5116403;28;20504;-54
2022/01/14 08:16:09;;;;;;;42.57;20.87;;;2.20;99.90;;;;;;5117022;28;20187;-55
2022/01/14 08:18:36;;;;;;;42.13;19.97;;;2.10;99.90;;;;;;5116201;28;20535;-57
2022/01/14 08:21:03;;;;;;;59.57;23.83;;;2.20;99.90;;;;;;5116213;28;20615;-57
2022/01/14 08:23:29;;;;;;;28.60;19.30;;;2.20;99.90;;;;;;5117357;28;20186;-55
2022/01/14 08:25:55;;;;;;;83.97;23.77;;;2.20;99.90;;;;;;5117038;28;20665;-55
2022/01/14 08:28:21;;;;;;;54.67;21.70;;;2.10;99.90;;;;;;5117161;28;20252;-55
2022/01/14 08:30:47;;;;;;;41.07;20.47;;;2.10;99.90;;;;;;5115850;28;20184;-55
2022/01/14 08:33:12;;;;;;;54.40;21.30;;;2.30;99.90;;;;;;5116856;28;20183;-56
2022/01/14 08:35:39;;;;;;;32.63;19.53;;;2.40;99.90;;;;;;5117083;28;20253;-55
2022/01/14 08:38:06;;;;;;;25.63;18.73;;;2.40;99.90;;;;;;5117084;28;20185;-55
2022/01/14 08:40:32;;;;;;;37.67;20.63;;;2.50;99.90;;;;;;5117049;28;20173;-55
2022/01/14 08:42:58;;;;;;;35.40;20.40;;;2.50;99.90;;;;;;5116676;28;20605;-55
2022/01/14 08:45:24;;;;;;;35.00;21.30;;;2.50;99.90;;;;;;5116866;28;20187;-57
2022/01/14 08:47:52;;;;;;;31.70;18.97;;;2.40;99.90;;;;;;5117200;28;20267;-56
2022/01/14 08:50:23;;;;;;;54.10;22.47;;;2.40;99.90;;;;;;5115619;28;20190;-55
2022/01/14 08:52:49;;;;;;;35.90;19.97;;;2.60;99.90;;;;;;5116821;28;20164;-55
2022/01/14 08:55:16;;;;;;;40.90;19.77;;;2.60;99.90;;;;;;5116692;28;20263;-57
2022/01/14 08:57:46;;;;;;;32.50;19.73;;;2.80;99.90;;;;;;5115503;28;20180;-55
2022/01/14 09:00:14;;;;;;;64.67;23.93;;;2.80;99.90;;;;;;5116644;28;20180;-57
2022/01/14 09:02:40;;;;;;;25.47;19.40;;;2.80;99.90;;;;;;5116560;28;20217;-56
2022/01/14 09:05:07;;;;;;;30.27;20.77;;;2.80;99.90;;;;;;5115379;28;20626;-57
2022/01/14 09:07:32;;;;;;;29.47;19.20;;;2.80;99.90;;;;;;5116467;28;20176;-56
2022/01/14 09:09:58;;;;;;;88.07;23.57;;;2.90;99.90;;;;;;5116400;28;20684;-56
2022/01/14 09:12:24;;;;;;;28.73;18.87;;;2.70;99.90;;;;;;5116178;28;20180;-55
2022/01/14 09:14:50;;;;;;;56.60;20.33;;;2.80;99.90;;;;;;5116733;28;20204;-56
2022/01/14 09:17:17;;;;;;;48.43;19.57;;;2.90;99.90;;;;;;5116677;28;20189;-56
2022/01/14 09:19:43;;;;;;;41.27;19.57;;;2.90;99.90;;;;;;5116770;28;20192;-56
2022/01/14 09:22:10;;;;;;;68.93;20.70;;;2.70;99.90;;;;;;5115972;28;20643;-56
2022/01/14 09:24:36;;;;;;;53.53;20.00;;;2.80;99.90;;;;;;5116104;28;20177;-57
2022/01/14 09:27:02;;;;;;;36.13;19.03;;;2.90;99.90;;;;;;5116121;28;20169;-57
2022/01/14 09:29:28;;;;;;;35.90;19.83;;;3.10;99.90;;;;;;5116009;28;20197;-56
2022/01/14 09:31:53;;;;;;;48.67;21.13;;;3.20;99.90;;;;;;5115981;28;20277;-55
2022/01/14 09:34:19;;;;;;;45.23;20.13;;;3.30;99.90;;;;;;5115981;28;20255;-56
2022/01/14 09:36:45;;;;;;;36.13;18.63;;;3.30;99.90;;;;;;5115035;28;20180;-55
2022/01/14 09:39:11;;;;;;;41.10;19.43;;;3.30;99.90;;;;;;5115939;27;20626;-55
2022/01/14 09:41:37;;;;;;;20.33;17.37;;;3.50;99.90;;;;;;5115567;28;20584;-57
2022/01/14 09:44:03;;;;;;;78.83;24.53;;;3.40;99.90;;;;;;5114316;28;20180;-53
2022/01/14 09:46:29;;;;;;;28.30;18.97;;;3.40;99.90;;;;;;5097538;28;20189;-55
2022/01/14 09:48:55;;;;;;;30.50;19.35;;;3.40;99.90;;;;;;5114085;28;20741;-55
2022/01/14 09:51:21;;;;;;;29.73;19.60;;;3.50;99.90;;;;;;5114462;28;20664;-56
2022/01/14 09:53:48;;;;;;;27.80;20.30;;;3.60;99.90;;;;;;5115634;28;20168;-55
2022/01/14 09:56:16;;;;;;;46.77;23.47;;;3.60;99.90;;;;;;5115297;28;20641;-55
2022/01/14 09:58:46;;;;;;;25.97;20.30;;;3.60;99.90;;;;;;5114291;28;20537;-55
2022/01/14 10:01:21;;;;;;;37.10;21.27;;;3.70;99.90;;;;;;5115473;27;20157;-55
2022/01/14 10:03:56;;;;;;;36.63;19.77;;;3.70;99.90;;;;;;5115737;28;20160;-56
2022/01/14 10:06:56;;;;;;;23.92;19.70;;;3.50;99.90;;;;;;5115418;28;20220;-56
2022/01/14 10:09:32;;;;;;;21.70;18.80;;;3.70;99.90;;;;;;5115067;28;20196;-55
2022/01/14 10:12:18;;;;;;;28.70;20.80;;;3.80;99.90;;;;;;5115281;28;20488;-55
2022/01/14 10:15:03;;;;;;;21.33;18.60;;;3.90;99.90;;;;;;5115210;28;20568;-55
2022/01/14 10:17:41;;;;;;;30.37;19.97;;;3.90;99.90;;;;;;5115019;28;20188;-55
2022/01/14 10:20:09;;;;;;;31.10;21.70;;;3.70;99.90;;;;;;5115114;28;20220;-55
2022/01/14 10:22:47;;;;;;;28.00;20.77;;;3.90;99.90;;;;;;5115043;28;20521;-57
2022/01/14 10:25:20;;;;;;;23.77;20.90;;;4.00;99.90;;;;;;5115162;28;20160;-55
2022/01/14 10:27:52;;;;;;;28.27;21.30;;;4.10;99.90;;;;;;5114904;28;20225;-55
2022/01/14 10:30:24;;;;;;;23.55;20.90;;;4.20;99.90;;;;;;5114875;28;20181;-55
2022/01/14 10:32:56;;;;;;;23.83;19.23;;;4.20;99.90;;;;;;5114810;28;20709;-55
2022/01/14 10:35:24;;;;;;;21.27;18.98;;;4.20;99.90;;;;;;5114777;28;20177;-55
2022/01/14 10:37:50;;;;;;;23.15;20.50;;;4.20;99.90;;;;;;5114931;28;20538;-55
2022/01/14 10:40:25;;;;;;;66.07;27.98;;;4.20;99.90;;;;;;5114695;28;20188;-55
2022/01/14 10:42:59;;;;;;;34.10;20.15;;;4.30;99.90;;;;;;5114642;28;20160;-55
2022/01/14 10:45:27;;;;;;;29.30;20.02;;;4.30;99.90;;;;;;5113420;28;20169;-55
2022/01/14 10:47:58;;;;;;;51.63;21.17;;;4.40;99.90;;;;;;5114663;28;20234;-55
2022/01/14 10:50:27;;;;;;;26.50;18.00;;;4.40;99.90;;;;;;5114233;28;20662;-57
2022/01/14 10:52:53;;;;;;;41.83;21.17;;;4.50;99.90;;;;;;5114486;28;20169;-55
2022/01/14 10:55:31;;;;;;;23.75;19.55;;;4.60;99.90;;;;;;5114446;28;20644;-55
2022/01/14 10:57:57;;;;;;;36.88;21.17;;;4.50;99.90;;;;;;5114448;28;20206;-56
2022/01/14 11:00:25;;;;;;;28.67;20.40;;;4.60;99.90;;;;;;5114354;28;20176;-56
2022/01/14 11:02:53;;;;;;;25.83;20.15;;;4.70;99.90;;;;;;5114333;28;20173;-55
2022/01/14 11:05:21;;;;;;;26.67;20.50;;;4.60;99.90;;;;;;5114876;28;20184;-55
2022/01/14 11:07:48;;;;;;;79.07;24.38;;;4.60;99.90;;;;;;5115253;28;20172;-57
2022/01/14 11:10:24;;;;;;;23.98;21.00;;;4.70;99.90;;;;;;5114247;28;20184;-55
2022/01/14 11:12:51;;;;;;;34.17;22.55;;;4.80;99.90;;;;;;5114083;28;20259;-57
2022/01/14 11:15:18;;;;;;;35.10;22.85;;;4.80;99.90;;;;;;5114186;28;20176;-56
2022/01/14 11:17:53;;;;;;;29.55;20.88;;;4.70;99.90;;;;;;5114305;28;20229;-55
2022/01/14 11:20:25;;;;;;;51.13;22.88;;;4.80;99.90;;;;;;5114044;28;20177;-56
2022/01/14 11:25:44;;;;;;;48.10;23.60;;;4.80;99.90;;;;;;5114068;28;20229;-55
2022/01/14 11:28:11;;;;;;;25.13;22.42;;;4.90;99.90;;;;;;5113463;28;20204;-55
2022/01/14 11:30:40;;;;;;;34.95;24.02;;;4.90;99.90;;;;;;5112734;28;20177;-56
2022/01/14 11:33:08;;;;;;;29.75;23.27;;;5.00;99.90;;;;;;5113947;28;20172;-56
2022/01/14 11:35:37;;;;;;;30.23;23.38;;;4.80;99.90;;;;;;5113926;28;20180;-55
2022/01/14 11:38:24;;;;;;;38.38;25.08;;;4.80;99.90;;;;;;5113807;28;20183;-57
2022/01/14 11:40:51;;;;;;;30.63;23.38;;;4.90;99.90;;;;;;5113456;28;20252;-56
2022/01/14 11:43:41;;;;;;;29.13;22.63;;;5.00;99.90;;;;;;5113854;28;20185;-55
2022/01/14 11:46:10;;;;;;;34.67;27.92;;;5.10;99.90;;;;;;5112406;28;20189;-56
2022/01/14 11:48:42;;;;;;;70.63;45.22;;;5.20;99.90;;;;;;5113817;28;20200;-57
2022/01/14 11:51:11;;;;;;;41.50;29.88;;;5.20;99.90;;;;;;5113781;28;20165;-55
2022/01/14 11:53:48;;;;;;;52.55;27.10;;;5.20;99.90;;;;;;5113643;28;20182;-57
2022/01/14 11:56:32;;;;;;;67.10;52.10;;;5.30;99.90;;;;;;5112569;28;20173;-55
2022/01/14 11:59:24;;;;;;;48.83;32.15;;;5.40;99.90;;;;;;5113676;28;20199;-56
2022/01/14 12:01:50;;;;;;;39.70;33.60;;;5.30;99.90;;;;;;5106552;28;20189;-57
2022/01/14 12:04:17;;;;;;;49.53;32.63;;;5.30;99.90;;;;;;5113627;28;20611;-56
2022/01/14 12:06:51;;;;;;;33.85;28.02;;;5.40;99.90;;;;;;5112325;28;20172;-56
2022/01/14 12:09:33;;;;;;;50.35;32.28;;;5.40;99.90;;;;;;5113448;28;20199;-55
2022/01/14 12:12:24;;;;;;;47.08;30.30;;;5.40;99.90;;;;;;5113568;28;20214;-55
2022/01/14 12:15:02;;;;;;;40.50;28.30;;;5.40;99.90;;;;;;5113399;28;20181;-56
2022/01/14 12:17:38;;;;;;;32.78;29.27;;;5.40;99.90;;;;;;5113524;28;20192;-56
2022/01/14 12:20:18;;;;;;;39.20;27.42;;;5.30;99.90;;;;;;5113477;28;20179;-55
2022/01/14 12:23:05;;;;;;;37.50;27.85;;;5.40;99.90;;;;;;5113524;28;20164;-56
2022/01/14 12:25:43;;;;;;;87.00;30.95;;;5.40;99.90;;;;;;5113178;28;20525;-54
2022/01/14 12:28:23;;;;;;;38.30;27.35;;;5.30;99.90;;;;;;5113361;28;20184;-56
2022/01/14 12:31:01;;;;;;;38.25;26.27;;;5.40;99.90;;;;;;5113362;28;20229;-55
2022/01/14 12:33:48;;;;;;;42.53;27.00;;;5.50;99.90;;;;;;5113367;28;20270;-55
2022/01/14 12:36:20;;;;;;;85.05;40.17;;;5.50;99.90;;;;;;5113404;28;20172;-55
2022/01/14 12:38:47;;;;;;;60.58;33.20;;;5.60;99.90;;;;;;5113384;28;20173;-53
2022/01/14 12:41:23;;;;;;;61.85;38.58;;;5.60;99.90;;;;;;5115697;28;20184;-55
2022/01/14 12:43:57;;;;;;;30.98;27.58;;;5.60;99.90;;;;;;5115717;28;20180;-55
2022/01/14 12:49:06;;;;;;;110.38;33.30;;;5.70;99.90;;;;;;5116908;28;20286;-57
2022/01/14 12:51:33;;;;;;;84.28;31.33;;;5.80;99.90;;;;;;5116961;28;20162;-56
2022/01/14 12:54:01;;;;;;;56.80;27.27;;;5.90;99.90;;;;;;5117077;28;20177;-55
2022/01/14 12:56:31;;;;;;;47.85;28.65;;;5.90;99.90;;;;;;5116755;28;20670;-56
2022/01/14 12:59:00;;;;;;;41.45;28.08;;;6.00;99.90;;;;;;5116696;28;20181;-56
2022/01/14 13:01:37;;;;;;;43.17;30.80;;;6.00;99.90;;;;;;5116497;28;20173;-57
2022/01/14 13:04:11;;;;;;;34.83;29.92;;;6.00;99.90;;;;;;5116636;27;20165;-57
2022/01/14 13:06:44;;;;;;;32.72;29.23;;;6.10;99.90;;;;;;5116475;28;20615;-57
2022/01/14 13:09:11;;;;;;;31.17;26.45;;;6.10;99.90;;;;;;5116571;28;20275;-55
2022/01/14 13:11:45;;;;;;;28.50;25.10;;;5.90;99.90;;;;;;5116516;28;20173;-55
2022/01/14 13:14:16;;;;;;;38.63;25.77;;;5.90;99.90;;;;;;5116349;28;20225;-56
2022/01/14 13:16:52;;;;;;;30.13;24.80;;;6.00;99.90;;;;;;5115031;28;20195;-56